Maryborough, Australia
Current Conditions -  °F | °C
As of 5:00 AM on Sunday 26 Oct 2014 (Local Time) from YBUD Reporting Station
Scattered Clouds Scattered Clouds  
Wind Chill: 64°   Ceiling: Unl
Heat Index: 64°   Visibility: 6mi
Dew Point: 61°   Wind: 5mph
Humidity: 88%   Direction: 350°N
Pressure: 30.03"   Gusts: NA
Location:  25.54°S, 152.7°E
Report Text: YBUD 251900Z AUTO 35004KT 9999 // SCT023 18/16 Q1017
Loading
Personal Weather Stations






























Interactive Weather Map
Tropical Storm Tracking
New forecast layout! Learn more

10-Day Weather Forecast

Advertisements
Track Severe Weather on mobile